createdAt,value
2022-10-02T00:00:07.039Z,8.02
2022-10-02T00:02:50.976Z,7.60
2022-10-02T00:05:23.701Z,7.45
2022-10-02T00:08:05.053Z,10.43
2022-10-02T00:10:57.022Z,9.13
2022-10-02T00:13:55.004Z,8.68
2022-10-02T00:16:24.523Z,8.13
2022-10-02T00:19:00.034Z,6.00
2022-10-02T00:22:00.593Z,6.43
2022-10-02T00:24:48.048Z,5.95
2022-10-02T00:27:50.132Z,5.20
2022-10-02T00:30:18.110Z,5.25
2022-10-02T00:33:32.056Z,6.78
2022-10-02T00:36:11.965Z,8.73
2022-10-02T00:38:59.028Z,8.45
2022-10-02T00:42:05.453Z,7.22
2022-10-02T00:45:09.059Z,6.20
2022-10-02T00:47:52.568Z,9.32
2022-10-02T00:50:50.038Z,6.13
2022-10-02T00:53:47.077Z,4.47
2022-10-02T00:56:44.090Z,6.75
2022-10-02T00:59:28.865Z,7.75
2022-10-02T01:02:41.079Z,10.27
2022-10-02T01:05:09.173Z,4.50
2022-10-02T01:07:49.067Z,5.85
2022-10-02T01:10:25.121Z,12.75
2022-10-02T01:13:00.160Z,8.05
2022-10-02T01:15:41.093Z,8.45
2022-10-02T01:18:09.911Z,5.63
2022-10-02T01:20:48.101Z,13.00
2022-10-02T01:24:05.156Z,18.75
2022-10-02T01:26:39.155Z,10.73
2022-10-02T01:29:05.972Z,10.90
2022-10-02T01:31:41.189Z,17.45
2022-10-02T01:34:15.165Z,19.88
2022-10-02T01:36:42.156Z,13.40
2022-10-02T01:39:16.187Z,13.32
2022-10-02T01:41:44.917Z,9.98
2022-10-02T01:44:20.168Z,15.02
2022-10-02T01:47:00.563Z,15.77
2022-10-02T01:49:48.156Z,9.27
2022-10-02T01:52:40.154Z,8.85
2022-10-02T01:55:19.238Z,7.85
2022-10-02T01:58:09.936Z,11.88
2022-10-02T02:01:12.243Z,13.55
2022-10-02T02:03:53.062Z,8.95
2022-10-02T02:07:01.208Z,11.30
2022-10-02T02:09:42.176Z,13.57
2022-10-02T02:12:37.188Z,16.52
2022-10-02T02:15:18.774Z,11.57
2022-10-02T02:18:04.219Z,19.27
2022-10-02T02:20:37.181Z,13.45
2022-10-02T02:23:17.207Z,16.30
2022-10-02T02:25:48.115Z,12.00
2022-10-02T02:28:25.252Z,11.55
2022-10-02T02:30:55.328Z,10.18
2022-10-02T02:33:34.198Z,23.05
2022-10-02T02:36:07.362Z,14.18
2022-10-02T02:38:48.216Z,15.20
2022-10-02T02:41:21.463Z,15.55
2022-10-02T02:44:05.240Z,17.48
2022-10-02T02:47:00.591Z,11.73
2022-10-02T02:49:40.271Z,10.73
2022-10-02T02:52:12.227Z,13.63
2022-10-02T02:55:03.265Z,10.40
2022-10-02T02:57:38.139Z,7.45
2022-10-02T03:00:14.228Z,8.77
2022-10-02T03:02:48.273Z,5.65
2022-10-02T03:05:18.282Z,5.40
2022-10-02T03:08:04.318Z,5.47
2022-10-02T03:10:52.288Z,5.70
2022-10-02T03:13:41.815Z,9.25
2022-10-02T03:16:36.529Z,5.38
2022-10-02T03:19:32.303Z,11.73
2022-10-02T03:22:18.285Z,20.92
2022-10-02T03:25:19.268Z,13.70
2022-10-02T03:28:10.405Z,16.38
2022-10-02T03:30:47.307Z,14.00
2022-10-02T03:33:16.626Z,12.63
2022-10-02T03:35:51.325Z,15.93
2022-10-02T03:38:27.300Z,19.45
2022-10-02T03:41:05.478Z,12.50
2022-10-02T03:43:32.214Z,16.67
2022-10-02T03:45:59.226Z,16.23
2022-10-02T03:48:32.327Z,14.43
2022-10-02T03:51:05.330Z,14.43
2022-10-02T03:53:36.534Z,10.60
2022-10-02T03:56:15.362Z,8.95
2022-10-02T03:58:53.333Z,9.35
2022-10-02T04:01:38.511Z,9.32
2022-10-02T04:04:28.613Z,10.82
2022-10-02T04:07:09.389Z,9.27
2022-10-02T04:09:57.821Z,7.75
2022-10-02T04:12:40.378Z,12.77
2022-10-02T04:17:59.046Z,14.73
2022-10-02T04:20:55.370Z,10.35
2022-10-02T04:23:51.396Z,8.95
2022-10-02T04:26:29.625Z,15.15
2022-10-02T04:29:08.388Z,11.98
2022-10-02T04:31:35.287Z,15.57
2022-10-02T04:34:09.436Z,9.88
2022-10-02T04:37:02.766Z,5.28
2022-10-02T04:39:46.516Z,5.97
2022-10-02T04:42:34.817Z,6.22
2022-10-02T04:45:08.429Z,6.85
2022-10-02T04:48:12.248Z,6.80
2022-10-02T04:51:07.448Z,10.23
2022-10-02T04:54:02.091Z,4.65
2022-10-02T04:57:15.441Z,4.50
2022-10-02T04:59:58.456Z,6.13
2022-10-02T05:02:34.244Z,4.15
2022-10-02T05:05:35.496Z,4.18
2022-10-02T05:08:02.225Z,6.75
2022-10-02T05:11:13.473Z,10.07
2022-10-02T05:14:14.606Z,6.13
2022-10-02T05:16:53.181Z,11.30
2022-10-02T05:19:34.490Z,16.50
2022-10-02T05:22:12.162Z,15.15
2022-10-02T05:25:19.680Z,8.55
2022-10-02T05:27:58.238Z,4.20
2022-10-02T05:30:52.513Z,10.38
2022-10-02T05:33:47.416Z,11.23
2022-10-02T05:36:42.518Z,10.45
2022-10-02T05:39:28.519Z,10.18
2022-10-02T05:42:19.454Z,10.32
2022-10-02T05:44:59.506Z,8.40
2022-10-02T05:47:35.101Z,4.97
2022-10-02T05:50:37.574Z,6.07
2022-10-02T05:53:40.034Z,7.65
2022-10-02T05:56:25.526Z,7.10
2022-10-02T05:59:10.520Z,5.22
2022-10-02T06:01:42.194Z,4.28
2022-10-02T06:04:37.529Z,5.32
2022-10-02T06:07:13.464Z,4.25
2022-10-02T06:09:57.567Z,8.73
2022-10-02T06:12:46.539Z,13.10
2022-10-02T06:15:37.972Z,10.82
2022-10-02T06:18:20.551Z,9.02
2022-10-02T06:21:09.543Z,6.72
2022-10-02T06:23:49.574Z,14.32
2022-10-02T06:26:38.105Z,8.75
2022-10-02T06:29:24.923Z,11.18
2022-10-02T06:32:07.561Z,11.00
2022-10-02T06:34:44.638Z,6.28
2022-10-02T06:37:34.536Z,7.30
2022-10-02T06:40:34.647Z,7.38
2022-10-02T06:43:14.917Z,8.20
2022-10-02T06:46:20.618Z,11.95
2022-10-02T06:49:14.672Z,6.90
2022-10-02T06:52:12.303Z,10.50
2022-10-02T06:55:25.643Z,8.75
2022-10-02T06:58:10.606Z,11.00
2022-10-02T07:00:46.176Z,10.30
2022-10-02T07:03:33.629Z,11.52
2022-10-02T07:06:31.095Z,5.38
2022-10-02T07:09:47.625Z,6.82
2022-10-02T07:12:30.663Z,6.13
2022-10-02T07:15:44.666Z,8.55
2022-10-02T07:18:28.642Z,6.55
2022-10-02T07:21:10.828Z,7.88
2022-10-02T07:24:02.453Z,6.07
2022-10-02T07:26:54.000Z,5.40
2022-10-02T07:29:32.650Z,7.88
2022-10-02T07:32:15.733Z,9.98
2022-10-02T07:34:58.693Z,9.82
2022-10-02T07:38:02.884Z,11.68
2022-10-02T07:40:52.427Z,10.02
2022-10-02T07:44:01.730Z,6.93
2022-10-02T07:46:34.460Z,9.40
2022-10-02T07:49:35.706Z,11.02
2022-10-02T07:52:37.016Z,7.78
2022-10-02T07:55:30.724Z,11.45
2022-10-02T07:58:43.724Z,12.05
2022-10-02T08:01:18.392Z,9.27
2022-10-02T08:04:20.799Z,9.02
2022-10-02T08:06:51.308Z,13.45
2022-10-02T08:09:34.810Z,11.13
2022-10-02T08:12:28.160Z,7.85
2022-10-02T08:15:02.730Z,7.82
2022-10-02T08:17:39.756Z,8.23
2022-10-02T08:20:49.768Z,13.15
2022-10-02T08:23:47.245Z,8.82
2022-10-02T08:26:35.945Z,11.77
2022-10-02T08:29:56.788Z,15.05
2022-10-02T08:32:38.735Z,13.43
2022-10-02T08:35:23.846Z,10.73
2022-10-02T08:38:10.091Z,9.55
2022-10-02T08:40:58.786Z,11.98
2022-10-02T08:43:50.489Z,9.10
2022-10-02T08:47:05.827Z,12.37
2022-10-02T08:49:52.555Z,11.32
2022-10-02T08:52:48.859Z,10.70
2022-10-02T08:55:48.290Z,14.10
2022-10-02T08:58:45.841Z,12.73
2022-10-02T09:01:38.981Z,8.13
2022-10-02T09:04:49.835Z,7.97
2022-10-02T09:07:59.853Z,16.38
2022-10-02T09:11:02.472Z,14.73
2022-10-02T09:14:03.111Z,20.13
2022-10-02T09:16:45.277Z,11.70
2022-10-02T09:19:47.931Z,12.63
2022-10-02T09:22:47.962Z,14.85
2022-10-02T09:25:43.909Z,12.65
2022-10-02T09:28:35.999Z,14.50
2022-10-02T09:31:18.862Z,13.98
2022-10-02T09:34:19.904Z,13.45
2022-10-02T09:37:06.710Z,18.17
2022-10-02T09:40:18.910Z,12.80
2022-10-02T09:43:32.892Z,16.00
2022-10-02T09:46:10.503Z,14.77
2022-10-02T09:49:20.903Z,13.55
2022-10-02T09:52:23.937Z,12.77
2022-10-02T09:55:21.898Z,15.05
2022-10-02T09:58:16.211Z,16.38
2022-10-02T10:01:12.884Z,14.98
2022-10-02T10:04:53.746Z,12.63
2022-10-02T10:07:43.904Z,16.92
2022-10-02T10:10:38.157Z,11.32
2022-10-02T10:13:52.970Z,13.93
2022-10-02T10:16:44.967Z,10.63
2022-10-02T10:19:39.984Z,13.90
2022-10-02T10:22:28.921Z,13.27
2022-10-02T10:25:34.293Z,15.85
2022-10-02T10:28:25.956Z,10.57
2022-10-02T10:31:34.633Z,14.50
2022-10-02T10:34:56.931Z,13.35
2022-10-02T10:38:30.965Z,9.00
2022-10-02T10:41:19.972Z,14.68
2022-10-02T10:43:59.013Z,10.85
2022-10-02T10:46:49.747Z,9.82
2022-10-02T10:49:51.039Z,13.43
2022-10-02T10:52:32.686Z,13.23
2022-10-02T10:55:24.970Z,10.00
2022-10-02T10:58:01.310Z,9.07
2022-10-02T11:01:07.099Z,8.90
2022-10-02T11:03:51.021Z,10.98
2022-10-02T11:06:26.432Z,8.63
2022-10-02T11:09:33.042Z,7.10
2022-10-02T11:12:41.988Z,7.40
2022-10-02T11:15:39.552Z,16.38
2022-10-02T11:18:27.004Z,12.57
2022-10-02T11:21:13.191Z,13.13
2022-10-02T11:24:08.064Z,14.70
2022-10-02T11:26:43.654Z,14.35
2022-10-02T11:29:54.057Z,11.43
2022-10-02T11:32:50.050Z,12.73
2022-10-02T11:35:37.746Z,10.15
2022-10-02T11:38:36.221Z,13.20
2022-10-02T11:41:11.299Z,9.13
2022-10-02T11:44:06.121Z,12.73
2022-10-02T11:46:46.054Z,13.13
2022-10-02T11:49:46.077Z,8.85
2022-10-02T11:52:57.054Z,12.10
2022-10-02T11:55:39.140Z,7.95
2022-10-02T11:58:48.079Z,9.93
2022-10-02T12:01:21.189Z,15.23
2022-10-02T12:04:16.154Z,14.52
2022-10-02T12:07:18.869Z,15.18
2022-10-02T12:13:05.157Z,12.27
2022-10-02T12:15:59.493Z,11.93
2022-10-02T12:18:55.125Z,11.38
2022-10-02T12:21:56.139Z,11.68
2022-10-02T12:24:55.020Z,16.15
2022-10-02T12:28:02.271Z,11.00
2022-10-02T12:31:05.927Z,11.02
2022-10-02T12:33:40.120Z,9.50
2022-10-02T12:36:16.477Z,13.35
2022-10-02T12:38:56.177Z,11.48
2022-10-02T12:41:42.045Z,6.63
2022-10-02T12:44:35.194Z,13.68
2022-10-02T12:47:16.989Z,8.55
2022-10-02T12:50:14.140Z,13.40
2022-10-02T12:53:23.162Z,7.00
2022-10-02T12:56:17.700Z,12.27
2022-10-02T12:59:09.131Z,10.55
2022-10-02T13:01:53.307Z,11.27
2022-10-02T13:04:48.260Z,12.48
2022-10-02T13:07:57.339Z,10.45
2022-10-02T13:10:45.821Z,13.68
2022-10-02T13:13:38.196Z,11.38
2022-10-02T13:16:15.155Z,8.88
2022-10-02T13:19:02.480Z,11.43
2022-10-02T13:21:39.150Z,8.80
2022-10-02T13:24:30.398Z,8.30
2022-10-02T13:27:06.403Z,9.10
2022-10-02T13:30:06.316Z,9.60
2022-10-02T13:33:17.277Z,11.43
2022-10-02T13:35:52.695Z,9.82
2022-10-02T13:38:51.265Z,10.05
2022-10-02T13:41:32.571Z,8.27
2022-10-02T13:44:15.281Z,10.73
2022-10-02T13:47:24.249Z,8.80
2022-10-02T13:50:06.265Z,14.48
2022-10-02T13:52:51.680Z,11.35
2022-10-02T13:56:00.279Z,11.85
2022-10-02T13:58:45.248Z,16.38
2022-10-02T14:01:47.293Z,10.48
2022-10-02T14:04:14.154Z,14.05
2022-10-02T14:06:59.394Z,12.52
2022-10-02T14:10:10.859Z,9.27
2022-10-02T14:12:47.338Z,12.35
2022-10-02T14:15:31.028Z,14.35
2022-10-02T14:18:36.352Z,15.05
2022-10-02T14:21:20.540Z,13.43
2022-10-02T14:24:55.342Z,10.68
2022-10-02T14:27:43.307Z,13.60
2022-10-02T14:30:42.377Z,10.82
2022-10-02T14:33:26.991Z,13.40
2022-10-02T14:36:12.363Z,8.73
2022-10-02T14:39:18.078Z,7.60
2022-10-02T14:41:51.531Z,10.02
2022-10-02T14:44:40.407Z,15.57
2022-10-02T14:47:41.380Z,12.52
2022-10-02T14:50:40.525Z,12.43
2022-10-02T14:53:31.384Z,15.50
2022-10-02T14:56:22.291Z,13.13
2022-10-02T14:59:31.369Z,11.65
2022-10-02T15:02:10.035Z,14.63
2022-10-02T15:05:08.379Z,8.57
2022-10-02T15:07:45.368Z,11.00
2022-10-02T15:10:42.439Z,8.82
2022-10-02T15:13:56.413Z,8.98
2022-10-02T15:16:57.408Z,13.10
2022-10-02T15:19:46.536Z,10.15
2022-10-02T15:22:31.375Z,13.10
2022-10-02T15:25:17.583Z,8.52
2022-10-02T15:28:35.346Z,9.45
2022-10-02T15:31:35.815Z,18.17
2022-10-02T15:34:30.428Z,9.77
2022-10-02T15:37:00.524Z,13.20
2022-10-02T15:39:30.319Z,12.15
2022-10-02T15:42:13.435Z,12.75
2022-10-02T15:44:58.284Z,9.73
2022-10-02T15:47:38.458Z,10.88
2022-10-02T15:50:36.084Z,10.13
2022-10-02T15:53:31.476Z,11.05
2022-10-02T15:56:21.802Z,13.73
2022-10-02T15:59:19.464Z,14.07
2022-10-02T16:02:13.486Z,10.48
2022-10-02T16:04:44.253Z,12.45
2022-10-02T16:07:37.481Z,15.35
2022-10-02T16:10:25.790Z,13.70
2022-10-02T16:13:37.453Z,14.85
2022-10-02T16:16:14.580Z,14.93
2022-10-02T16:18:56.485Z,11.90
2022-10-02T16:21:54.327Z,11.27
2022-10-02T16:24:36.517Z,13.40
2022-10-02T16:27:24.877Z,8.50
2022-10-02T16:30:19.490Z,10.73
2022-10-02T16:33:15.994Z,13.80
2022-10-02T16:36:10.647Z,13.48
2022-10-02T16:38:51.142Z,10.90
2022-10-02T16:41:57.768Z,9.05
2022-10-02T16:45:02.560Z,12.18
2022-10-02T16:47:50.804Z,6.35
2022-10-02T16:50:30.547Z,9.73
2022-10-02T16:53:11.516Z,12.45
2022-10-02T16:55:47.608Z,8.90
2022-10-02T16:58:39.547Z,11.55
2022-10-02T17:01:23.846Z,11.30
2022-10-02T17:04:21.641Z,12.57
2022-10-02T17:07:25.061Z,8.70
2022-10-02T17:10:24.597Z,11.02
2022-10-02T17:13:23.584Z,9.55
2022-10-02T17:16:01.618Z,12.27
2022-10-02T17:18:54.755Z,8.68
2022-10-02T17:21:37.589Z,8.63
2022-10-02T17:24:55.574Z,9.35
2022-10-02T17:27:48.514Z,6.40
2022-10-02T17:30:27.652Z,12.20
2022-10-02T17:33:13.125Z,10.23
2022-10-02T17:36:02.648Z,9.35
2022-10-02T17:38:50.793Z,12.35
2022-10-02T17:41:29.648Z,14.80
2022-10-02T17:44:38.361Z,6.60
2022-10-02T17:47:27.676Z,5.90
2022-10-02T17:50:34.640Z,6.28
2022-10-02T17:53:45.231Z,9.35
2022-10-02T17:56:40.588Z,4.93
2022-10-02T17:59:46.634Z,9.85
2022-10-02T18:02:45.618Z,6.47
2022-10-02T18:05:50.622Z,7.10
2022-10-02T18:09:02.647Z,10.23
2022-10-02T18:12:04.789Z,8.35
2022-10-02T18:15:05.638Z,7.95
2022-10-02T18:17:53.108Z,7.28
2022-10-02T18:20:57.651Z,8.93
2022-10-02T18:24:05.826Z,7.78
2022-10-02T18:26:32.732Z,7.82
2022-10-02T18:29:32.743Z,6.45
2022-10-02T18:32:30.413Z,5.28
2022-10-02T18:35:29.743Z,10.27
2022-10-02T18:38:19.676Z,11.63
2022-10-02T18:41:14.710Z,7.88
2022-10-02T18:44:11.690Z,6.35
2022-10-02T18:47:12.698Z,5.43
2022-10-02T18:50:03.683Z,7.20
2022-10-02T18:52:57.748Z,6.88
2022-10-02T18:56:04.731Z,7.90
2022-10-02T18:58:55.347Z,8.13
2022-10-02T19:02:13.951Z,6.18
2022-10-02T19:05:00.742Z,5.40
2022-10-02T19:07:38.185Z,7.90
2022-10-02T19:10:40.796Z,14.38
2022-10-02T19:13:19.743Z,10.13
2022-10-02T19:15:48.791Z,10.27
2022-10-02T19:18:37.733Z,8.98
2022-10-02T19:21:13.465Z,8.52
2022-10-02T19:27:01.257Z,9.82
2022-10-02T19:29:45.752Z,7.40
2022-10-02T19:32:21.180Z,5.68
2022-10-02T19:35:03.803Z,5.53
2022-10-02T19:37:31.596Z,6.75
2022-10-02T19:40:12.530Z,5.63
2022-10-02T19:42:48.448Z,9.43
2022-10-02T19:45:38.859Z,9.55
2022-10-02T19:48:17.621Z,7.60
2022-10-02T19:50:54.795Z,10.57
2022-10-02T19:53:24.454Z,7.30
2022-10-02T19:56:03.827Z,6.85
2022-10-02T19:58:36.673Z,6.70
2022-10-02T20:01:13.909Z,4.93
2022-10-02T20:03:43.627Z,4.60
2022-10-02T20:06:26.846Z,6.80
2022-10-02T20:09:25.899Z,4.68
2022-10-02T20:12:05.876Z,4.70
2022-10-02T20:14:48.876Z,6.25
2022-10-02T20:17:19.031Z,5.90
2022-10-02T20:19:58.890Z,6.38
2022-10-02T20:22:36.815Z,5.10
2022-10-02T20:25:34.913Z,6.40
2022-10-02T20:28:26.887Z,5.28
2022-10-02T20:31:11.190Z,3.92
2022-10-02T20:33:49.816Z,6.30
2022-10-02T20:36:35.908Z,5.40
2022-10-02T20:39:10.226Z,5.28
2022-10-02T20:41:59.905Z,7.68
2022-10-02T20:44:37.920Z,7.80
2022-10-02T20:47:35.857Z,6.95
2022-10-02T20:50:25.901Z,5.85
2022-10-02T20:53:11.327Z,5.93
2022-10-02T20:56:27.944Z,6.45
2022-10-02T20:59:25.951Z,4.05
2022-10-02T21:01:56.296Z,5.20
2022-10-02T21:05:04.966Z,3.83
2022-10-02T21:07:37.900Z,4.75
2022-10-02T21:10:51.941Z,7.03
2022-10-02T21:14:06.049Z,4.90
2022-10-02T21:16:58.077Z,6.80
2022-10-02T21:19:34.156Z,6.05
2022-10-02T21:22:25.934Z,8.63
2022-10-02T21:25:35.209Z,6.87
2022-10-02T21:28:20.667Z,5.57
2022-10-02T21:31:25.961Z,8.13
2022-10-02T21:34:31.113Z,5.65
2022-10-02T21:37:12.963Z,4.95
2022-10-02T21:40:03.032Z,5.25
2022-10-02T21:43:12.991Z,6.20
2022-10-02T21:46:05.929Z,5.75
2022-10-02T21:48:58.004Z,4.35
2022-10-02T21:51:46.087Z,5.18
2022-10-02T21:55:03.045Z,6.50
2022-10-02T21:57:51.967Z,4.88
2022-10-02T22:00:27.396Z,4.93
2022-10-02T22:03:20.030Z,7.88
2022-10-02T22:06:17.026Z,5.55
2022-10-02T22:08:59.373Z,5.78
2022-10-02T22:11:42.032Z,4.75
2022-10-02T22:14:19.240Z,5.43
2022-10-02T22:17:06.025Z,4.50
2022-10-02T22:19:50.989Z,4.25
2022-10-02T22:22:46.086Z,6.15
2022-10-02T22:25:49.764Z,5.43
2022-10-02T22:28:46.014Z,4.00
2022-10-02T22:31:29.740Z,4.72
2022-10-02T22:34:25.046Z,4.70
2022-10-02T22:37:14.036Z,4.53
2022-10-02T22:39:55.055Z,4.63
2022-10-02T22:42:40.104Z,4.88
2022-10-02T22:45:17.446Z,5.70
2022-10-02T22:48:14.084Z,4.13
2022-10-02T22:50:48.038Z,4.93
2022-10-02T22:53:47.093Z,5.88
2022-10-02T22:56:36.748Z,4.55
2022-10-02T22:59:25.071Z,5.72
2022-10-02T23:02:27.180Z,5.90
2022-10-02T23:05:18.070Z,4.70
2022-10-02T23:07:45.087Z,3.58
2022-10-02T23:10:49.080Z,4.57
2022-10-02T23:13:26.483Z,4.18
2022-10-02T23:16:19.151Z,5.50
2022-10-02T23:21:54.094Z,4.53
2022-10-02T23:24:34.696Z,3.95
2022-10-02T23:27:09.113Z,4.85
2022-10-02T23:30:09.107Z,3.65
2022-10-02T23:32:47.782Z,3.95
2022-10-02T23:35:53.141Z,5.28
2022-10-02T23:38:43.141Z,4.43
2022-10-02T23:41:41.378Z,5.47
2022-10-02T23:44:33.063Z,5.30
2022-10-02T23:47:24.168Z,4.63
2022-10-02T23:50:01.146Z,3.50
2022-10-02T23:53:19.143Z,4.93
2022-10-02T23:56:10.160Z,3.88
2022-10-02T23:58:59.940Z,5.15
